Time;durP1;ratioP1;P1;durP2;ratioP2;P2;SDS_P1;SDS_P2;PMS_P1;PMS_P2;Temp;Humidity;BMP_temperature;BMP_pressure;BME280_temperature;BME280_humidity;BME280_pressure;Samples;Min_cycle;Max_cycle;Signal;HPM_P1;HPM_P2
2023/07/16 00:01:53;;;;;;;2.33;1.45;;;;;;;17.86;100.00;97106.13;5064621;28;20047;-57
2023/07/16 00:04:20;;;;;;;3.22;1.63;;;;;;;17.89;100.00;97123.88;5066658;28;20085;-57
2023/07/16 00:06:46;;;;;;;2.47;1.40;;;;;;;17.91;100.00;97144.38;5064292;28;20553;-58
2023/07/16 00:09:13;;;;;;;1.58;1.00;;;;;;;17.93;100.00;97155.03;5064482;28;20039;-57
2023/07/16 00:11:39;;;;;;;2.00;0.90;;;;;;;17.89;100.00;97143.06;5066091;28;20107;-56
2023/07/16 00:14:06;;;;;;;1.73;0.65;;;;;;;17.87;100.00;97156.25;5064288;28;20033;-58
2023/07/16 00:16:33;;;;;;;1.33;0.60;;;;;;;17.88;100.00;97149.66;5065414;28;20644;-56
2023/07/16 00:18:59;;;;;;;1.30;0.60;;;;;;;17.96;100.00;97148.94;5065238;28;20063;-57
2023/07/16 00:21:26;;;;;;;1.60;0.80;;;;;;;17.91;100.00;97129.88;5063917;28;20044;-58
2023/07/16 00:23:52;;;;;;;1.92;0.90;;;;;;;17.93;100.00;97131.19;5063913;28;20122;-57
2023/07/16 00:26:19;;;;;;;1.48;0.77;;;;;;;17.89;100.00;97126.63;5064319;28;20041;-57
2023/07/16 00:28:45;;;;;;;1.42;0.65;;;;;;;17.87;100.00;97159.00;5060530;28;20048;-57
2023/07/16 00:31:12;;;;;;;1.75;0.75;;;;;;;17.86;100.00;97143.66;5064020;28;20041;-57
2023/07/16 00:33:39;;;;;;;3.55;1.10;;;;;;;17.91;100.00;97162.75;5063886;28;20132;-57
2023/07/16 00:36:05;;;;;;;1.83;0.90;;;;;;;17.94;100.00;97184.03;5064525;28;20135;-55
2023/07/16 00:38:32;;;;;;;2.10;0.88;;;;;;;17.81;100.00;97159.06;5064565;28;20044;-57
2023/07/16 00:40:58;;;;;;;2.20;0.85;;;;;;;17.81;100.00;97161.03;5064662;28;20048;-57
2023/07/16 00:43:25;;;;;;;2.78;0.82;;;;;;;17.79;100.00;97164.06;5061955;28;20123;-56
2023/07/16 00:45:51;;;;;;;2.03;0.70;;;;;;;17.77;100.00;97163.53;5063302;28;20047;-57
2023/07/16 00:48:19;;;;;;;1.60;0.50;;;;;;;17.65;100.00;97146.81;5063117;28;20044;-57
2023/07/16 00:50:46;;;;;;;2.55;0.70;;;;;;;17.73;100.00;97120.66;5062567;28;20043;-55
2023/07/16 00:53:12;;;;;;;2.78;0.60;;;;;;;17.78;100.00;97115.91;5062894;28;20068;-57
2023/07/16 00:55:39;;;;;;;1.67;0.75;;;;;;;17.74;100.00;97138.72;5062695;28;20040;-55
2023/07/16 00:58:07;;;;;;;1.35;0.70;;;;;;;17.74;100.00;97155.13;5063666;28;20105;-57
2023/07/16 01:00:38;;;;;;;2.15;0.50;;;;;;;17.70;100.00;97168.63;5063059;28;20755;-56
2023/07/16 01:03:15;;;;;;;2.65;0.60;;;;;;;17.75;100.00;97167.69;5062901;28;20064;-57
2023/07/16 01:05:48;;;;;;;1.73;0.50;;;;;;;17.73;100.00;97176.22;5062935;28;20032;-57
2023/07/16 01:08:21;;;;;;;4.80;0.70;;;;;;;17.64;100.00;97183.50;5060374;28;20052;-57
2023/07/16 01:10:49;;;;;;;2.03;0.65;;;;;;;17.65;100.00;97172.28;5063048;28;20139;-57
2023/07/16 01:13:16;;;;;;;2.00;0.65;;;;;;;17.60;100.00;97179.75;5060777;28;20055;-57
2023/07/16 01:15:43;;;;;;;2.80;0.90;;;;;;;17.64;100.00;97165.19;5060470;28;20687;-57
2023/07/16 01:18:09;;;;;;;3.28;0.80;;;;;;;17.63;100.00;97169.03;5062797;28;20066;-56
2023/07/16 01:20:36;;;;;;;1.95;0.65;;;;;;;17.63;100.00;97173.69;5062319;28;20051;-57
2023/07/16 01:23:26;;;;;;;1.98;0.77;;;;;;;17.58;100.00;97158.16;5061761;28;20049;-57
2023/07/16 01:26:19;;;;;;;1.52;0.70;;;;;;;17.51;100.00;97183.19;5063051;28;20037;-56
2023/07/16 01:28:54;;;;;;;2.55;0.93;;;;;;;17.42;100.00;97198.69;5057715;28;20076;-57
2023/07/16 01:31:22;;;;;;;2.13;0.73;;;;;;;17.42;100.00;97194.03;5061535;28;20139;-56
2023/07/16 01:33:50;;;;;;;20.50;1.80;;;;;;;17.42;100.00;97195.97;5062584;28;20059;-56
2023/07/16 01:36:19;;;;;;;1.67;0.85;;;;;;;17.35;100.00;97203.75;5061139;28;20082;-55
2023/07/16 01:38:46;;;;;;;2.25;1.00;;;;;;;17.27;100.00;97206.06;5061882;28;20140;-55
2023/07/16 01:41:12;;;;;;;3.63;0.70;;;;;;;17.26;100.00;97206.38;5061130;28;20133;-57
2023/07/16 01:43:40;;;;;;;3.13;1.10;;;;;;;17.27;100.00;97206.06;5061320;28;20380;-56
2023/07/16 01:46:07;;;;;;;2.70;0.90;;;;;;;17.28;100.00;97188.53;5062068;28;20048;-56
2023/07/16 01:48:35;;;;;;;2.03;0.90;;;;;;;17.22;100.00;97181.56;5063426;28;20049;-50
2023/07/16 01:51:03;;;;;;;2.10;0.90;;;;;;;17.29;100.00;97183.88;5063289;28;20110;-51
2023/07/16 01:53:31;;;;;;;5.05;0.90;;;;;;;17.09;100.00;97204.19;5062367;28;20522;-53
2023/07/16 01:55:58;;;;;;;2.47;0.90;;;;;;;16.75;100.00;97225.19;5063632;28;20479;-52
2023/07/16 01:58:25;;;;;;;2.40;0.90;;;;;;;16.62;100.00;97243.16;5060513;28;20136;-53
2023/07/16 02:00:52;;;;;;;2.60;1.08;;;;;;;16.42;100.00;97266.91;5063244;28;20506;-51
2023/07/16 02:03:18;;;;;;;5.65;1.58;;;;;;;16.35;100.00;97259.06;5061323;28;20044;-52
2023/07/16 02:05:45;;;;;;;5.28;1.38;;;;;;;16.49;100.00;97261.09;5062002;28;20029;-48
2023/07/16 02:08:11;;;;;;;1.77;1.15;;;;;;;16.60;100.00;97234.44;5062148;28;20036;-50
2023/07/16 02:10:38;;;;;;;3.47;1.30;;;;;;;16.69;100.00;97212.72;5063316;28;20117;-51
2023/07/16 02:13:04;;;;;;;4.00;1.50;;;;;;;16.49;100.00;97234.56;5063072;28;20533;-51
2023/07/16 02:15:31;;;;;;;4.85;1.30;;;;;;;16.25;100.00;97281.03;5061439;28;20045;-52
2023/07/16 02:17:58;;;;;;;5.07;1.42;;;;;;;16.18;100.00;97296.97;5059903;28;20097;-53
2023/07/16 02:20:24;;;;;;;3.58;1.15;;;;;;;16.08;100.00;97295.16;5062545;28;20134;-51
2023/07/16 02:22:51;;;;;;;3.38;1.25;;;;;;;16.04;100.00;97296.84;5061371;28;20503;-52
2023/07/16 02:25:18;;;;;;;3.17;1.30;;;;;;;16.01;100.00;97309.19;5062706;28;20075;-50
2023/07/16 02:27:46;;;;;;;7.25;1.58;;;;;;;15.93;100.00;97326.97;5061699;28;20103;-48
2023/07/16 02:30:14;;;;;;;5.25;1.70;;;;;;;16.01;100.00;97306.44;5061266;28;20050;-52
2023/07/16 02:32:42;;;;;;;4.85;1.88;;;;;;;15.99;100.00;97304.00;5062768;28;20803;-51
2023/07/16 02:35:09;;;;;;;6.85;1.60;;;;;;;15.92;100.00;97295.28;5061181;28;20071;-49
2023/07/16 02:37:36;;;;;;;4.78;2.10;;;;;;;16.09;100.00;97294.06;5062308;28;20579;-53
2023/07/16 02:40:03;;;;;;;2.72;1.55;;;;;;;16.24;100.00;97290.34;5062964;28;20069;-51
2023/07/16 02:42:30;;;;;;;3.03;1.52;;;;;;;16.19;100.00;97274.84;5062039;28;20040;-50
2023/07/16 02:44:56;;;;;;;7.53;1.70;;;;;;;16.10;100.00;97271.09;5061733;28;20049;-51
2023/07/16 02:47:23;;;;;;;7.32;1.60;;;;;;;15.96;100.00;97228.13;5062656;28;20128;-53
2023/07/16 02:49:53;;;;;;;3.08;0.90;;;;;;;16.19;100.00;97217.47;5063105;28;20036;-49
2023/07/16 02:52:19;;;;;;;3.55;1.30;;;;;;;16.24;100.00;97209.22;5061535;28;20041;-51
2023/07/16 02:54:46;;;;;;;3.83;1.10;;;;;;;16.28;100.00;97216.84;5062410;28;20388;-51
2023/07/16 02:57:12;;;;;;;4.38;1.30;;;;;;;16.30;100.00;97217.34;5074878;28;20072;-50
2023/07/16 02:59:39;;;;;;;4.32;1.30;;;;;;;16.33;100.00;97222.22;5062174;28;20086;-47
2023/07/16 03:02:05;;;;;;;5.07;1.30;;;;;;;16.22;100.00;97200.47;5060458;28;20131;-48
2023/07/16 03:04:32;;;;;;;4.93;1.42;;;;;;;16.24;100.00;97230.25;5060733;28;20052;-47
2023/07/16 03:06:58;;;;;;;3.80;1.15;;;;;;;16.27;100.00;97221.47;5062596;28;20052;-52
2023/07/16 03:09:25;;;;;;;1.75;0.80;;;;;;;16.31;100.00;97230.72;5061702;28;20735;-51
2023/07/16 03:11:51;;;;;;;3.08;1.15;;;;;;;16.37;100.00;97243.19;5065097;28;20491;-49
2023/07/16 03:14:18;;;;;;;2.60;1.00;;;;;;;16.45;100.00;97249.13;5060173;28;20461;-50
2023/07/16 03:16:45;;;;;;;4.57;1.08;;;;;;;16.43;100.00;97248.59;5062405;28;20098;-47
2023/07/16 03:19:11;;;;;;;4.60;1.45;;;;;;;16.43;100.00;97254.88;5059452;28;20051;-50
2023/07/16 03:21:38;;;;;;;4.55;1.30;;;;;;;16.43;100.00;97254.88;5073433;28;20507;-49
2023/07/16 03:24:05;;;;;;;3.35;1.33;;;;;;;16.41;100.00;97243.44;5059259;28;20036;-52
2023/07/16 03:26:31;;;;;;;4.75;1.30;;;;;;;16.37;100.00;97247.84;5057467;28;20032;-49
2023/07/16 03:28:59;;;;;;;3.35;1.02;;;;;;;16.33;100.00;97233.16;5061567;28;20064;-50
2023/07/16 03:31:27;;;;;;;5.55;1.33;;;;;;;16.29;100.00;97248.50;5047215;28;20531;-52
2023/07/16 03:33:53;;;;;;;4.68;1.30;;;;;;;16.23;100.00;97270.44;5064530;28;20097;-49
2023/07/16 03:36:22;;;;;;;2.88;1.45;;;;;;;16.25;100.00;97260.00;5062479;28;20037;-48
2023/07/16 03:38:49;;;;;;;3.55;1.30;;;;;;;16.20;100.00;97260.06;5065230;28;20032;-51
2023/07/16 03:41:16;;;;;;;3.53;1.40;;;;;;;16.12;100.00;97260.72;5066393;28;20083;-53
2023/07/16 03:43:44;;;;;;;4.15;1.20;;;;;;;16.17;100.00;97276.22;5064091;28;20064;-51
2023/07/16 03:46:19;;;;;;;7.00;1.40;;;;;;;16.11;100.00;97286.41;5063342;28;20044;-52
2023/07/16 03:48:46;;;;;;;8.63;1.48;;;;;;;16.04;100.00;97286.75;5065604;28;20039;-51
2023/07/16 03:51:13;;;;;;;4.13;1.50;;;;;;;16.13;100.00;97286.91;5062863;28;20052;-49
2023/07/16 03:53:39;;;;;;;7.57;1.63;;;;;;;16.14;100.00;97296.72;5064370;28;20039;-51
2023/07/16 03:56:06;;;;;;;3.78;1.20;;;;;;;16.12;100.00;97301.69;5065593;28;20060;-51
2023/07/16 03:58:34;;;;;;;3.55;1.60;;;;;;;16.17;100.00;97319.91;5065241;28;20040;-51
2023/07/16 04:01:03;;;;;;;4.22;1.15;;;;;;;16.22;100.00;97325.34;5064983;28;20041;-52
2023/07/16 04:03:30;;;;;;;7.13;1.35;;;;;;;16.21;100.00;97332.72;5062224;28;20047;-50
2023/07/16 04:06:12;;;;;;;5.00;1.45;;;;;;;16.20;100.00;97335.72;5061629;28;20462;-51
2023/07/16 04:08:39;;;;;;;7.88;1.50;;;;;;;16.28;100.00;97335.09;5063193;28;20033;-48
2023/07/16 04:11:06;;;;;;;5.30;1.48;;;;;;;16.36;100.00;97336.38;5064612;28;20049;-51
2023/07/16 04:13:33;;;;;;;7.28;1.73;;;;;;;16.36;100.00;97320.81;5063759;28;20561;-51
2023/07/16 04:15:59;;;;;;;7.88;1.40;;;;;;;16.30;100.00;97323.88;5063600;28;20047;-48
2023/07/16 04:18:26;;;;;;;5.03;1.70;;;;;;;16.41;100.00;97321.84;5063263;28;20563;-50
2023/07/16 04:20:52;;;;;;;6.13;2.30;;;;;;;16.49;100.00;97322.03;5063331;28;20051;-48
2023/07/16 04:23:20;;;;;;;11.43;1.58;;;;;;;16.30;100.00;97326.63;5063579;28;20032;-49
2023/07/16 04:25:46;;;;;;;8.55;2.03;;;;;;;16.22;100.00;97328.88;5064304;28;20136;-49
2023/07/16 04:28:13;;;;;;;8.00;1.73;;;;;;;16.24;100.00;97317.66;5063079;28;20127;-47
2023/07/16 04:30:39;;;;;;;4.20;1.30;;;;;;;16.24;100.00;97323.94;5063591;28;20036;-50
2023/07/16 04:33:06;;;;;;;2.90;1.30;;;;;;;16.21;100.00;97329.16;5062602;28;20128;-46
2023/07/16 04:35:33;;;;;;;7.82;1.70;;;;;;;16.06;100.00;97347.34;5062589;28;20037;-50
2023/07/16 04:38:00;;;;;;;4.82;1.58;;;;;;;15.98;100.00;97359.72;5063380;28;20103;-47
2023/07/16 04:40:28;;;;;;;6.97;1.63;;;;;;;15.94;100.00;97361.41;5061957;28;20044;-46
2023/07/16 04:42:55;;;;;;;6.45;1.70;;;;;;;15.95;100.00;97359.47;5063126;28;20079;-46
2023/07/16 04:45:21;;;;;;;4.57;1.50;;;;;;;16.10;100.00;97359.31;5063157;28;20120;-50
2023/07/16 04:47:48;;;;;;;5.63;1.52;;;;;;;16.22;100.00;97367.13;5063247;28;20052;-50
2023/07/16 04:50:14;;;;;;;8.43;1.30;;;;;;;16.33;99.92;97375.22;5062995;28;20114;-50
2023/07/16 04:52:41;;;;;;;5.65;1.15;;;;;;;16.38;98.42;97367.78;5062873;28;20040;-49
2023/07/16 04:55:08;;;;;;;6.70;1.67;;;;;;;16.47;100.00;97372.63;5062801;28;20032;-48
2023/07/16 04:57:34;;;;;;;5.07;1.58;;;;;;;16.41;98.72;97384.69;5062874;28;20697;-51
2023/07/16 05:00:01;;;;;;;3.65;1.20;;;;;;;16.49;99.39;97373.97;5060744;28;20048;-47
2023/07/16 05:02:27;;;;;;;4.78;1.42;;;;;;;16.58;99.65;97379.56;5061851;28;20515;-48
2023/07/16 05:04:54;;;;;;;5.43;1.50;;;;;;;16.60;99.35;97371.09;5062425;28;20045;-52
2023/07/16 05:07:20;;;;;;;6.53;1.60;;;;;;;16.54;98.25;97377.72;5062490;28;20067;-48
2023/07/16 05:09:47;;;;;;;7.38;1.70;;;;;;;16.58;96.63;97381.50;5062910;28;20586;-47
2023/07/16 05:12:13;;;;;;;5.00;1.38;;;;;;;16.66;95.99;97380.03;5061876;28;20048;-46
2023/07/16 05:14:45;;;;;;;6.63;1.60;;;;;;;16.73;96.62;97384.03;5061824;28;20039;-47
2023/07/16 05:17:13;;;;;;;4.13;1.33;;;;;;;16.75;96.50;97384.59;5061610;28;20504;-49
2023/07/16 05:19:40;;;;;;;7.10;1.60;;;;;;;16.75;96.39;97389.22;5062579;28;20048;-46
2023/07/16 05:22:08;;;;;;;4.88;1.30;;;;;;;16.75;97.27;97378.28;5062552;28;20123;-47
2023/07/16 05:24:35;;;;;;;6.20;1.80;;;;;;;16.75;99.99;97391.97;5061700;28;20109;-48
2023/07/16 05:27:02;;;;;;;6.40;1.65;;;;;;;16.87;98.27;97388.81;5061202;28;20049;-47
2023/07/16 05:29:28;;;;;;;9.75;1.63;;;;;;;16.94;97.11;97393.91;5061539;28;20105;-47
2023/07/16 05:31:55;;;;;;;5.32;1.60;;;;;;;16.93;96.58;97400.50;5061280;28;20060;-47
2023/07/16 05:34:21;;;;;;;4.43;1.33;;;;;;;16.94;94.10;97399.38;5061672;28;20037;-53
2023/07/16 05:36:48;;;;;;;5.15;1.30;;;;;;;16.99;94.51;97391.13;5064468;28;20048;-50
2023/07/16 05:39:15;;;;;;;5.85;1.50;;;;;;;17.06;95.64;97393.53;5062050;28;20131;-52
2023/07/16 05:41:41;;;;;;;6.28;1.48;;;;;;;17.10;97.46;97394.56;5061662;28;20048;-51
2023/07/16 05:44:08;;;;;;;4.88;1.75;;;;;;;17.15;95.08;97397.22;5061054;28;20050;-48
2023/07/16 05:46:35;;;;;;;6.82;1.45;;;;;;;17.11;94.62;97398.94;5060149;28;20044;-52
2023/07/16 05:49:02;;;;;;;7.35;3.03;;;;;;;17.25;92.46;97405.28;5060209;28;20115;-50
2023/07/16 05:51:28;;;;;;;9.15;1.35;;;;;;;17.28;94.24;97407.44;5061239;28;20055;-48
2023/07/16 05:53:55;;;;;;;3.97;1.35;;;;;;;17.39;93.84;97416.31;5061203;28;20040;-49
2023/07/16 05:56:21;;;;;;;4.90;1.73;;;;;;;17.44;90.69;97420.09;5060355;28;20036;-47
2023/07/16 05:58:48;;;;;;;4.93;1.48;;;;;;;17.50;91.82;97414.25;5061617;28;20057;-49
2023/07/16 06:01:14;;;;;;;4.78;1.90;;;;;;;17.51;90.94;97412.34;5058191;28;20131;-49
2023/07/16 06:03:41;;;;;;;6.78;1.58;;;;;;;17.59;91.78;97410.84;5061000;28;20043;-48
2023/07/16 06:06:11;;;;;;;4.10;1.30;;;;;;;17.65;90.15;97404.16;5061632;28;20846;-48
2023/07/16 06:08:37;;;;;;;6.13;1.77;;;;;;;17.64;89.48;97417.06;5060579;28;20041;-50
2023/07/16 06:11:04;;;;;;;3.22;1.30;;;;;;;17.49;91.92;97418.09;5060941;28;20052;-49
2023/07/16 06:13:31;;;;;;;8.15;2.22;;;;;;;17.61;93.48;97408.63;5059318;28;20041;-54
2023/07/16 06:15:57;;;;;;;4.85;1.40;;;;;;;17.70;93.56;97420.53;5060500;28;20047;-52
2023/07/16 06:18:24;;;;;;;5.60;1.40;;;;;;;17.79;89.92;97426.97;5061140;28;20061;-54
2023/07/16 06:20:52;;;;;;;4.97;1.40;;;;;;;17.86;91.82;97423.00;5060741;28;20059;-54
2023/07/16 06:23:19;;;;;;;7.70;1.58;;;;;;;17.92;90.15;97427.31;5058003;28;20510;-56
2023/07/16 06:25:48;;;;;;;8.45;1.45;;;;;;;17.90;89.59;97415.81;5059375;28;20045;-52
2023/07/16 06:28:15;;;;;;;5.78;1.38;;;;;;;17.84;90.56;97425.25;5060828;28;20041;-55
2023/07/16 06:30:41;;;;;;;6.00;1.85;;;;;;;17.84;92.11;97419.78;5061073;28;20096;-53
2023/07/16 06:33:08;;;;;;;4.88;1.25;;;;;;;17.85;88.96;97419.47;5060793;28;20515;-54
2023/07/16 06:35:35;;;;;;;5.05;1.80;;;;;;;17.82;89.78;97422.81;5060168;28;20626;-54
2023/07/16 06:38:02;;;;;;;6.60;1.30;;;;;;;17.87;89.79;97424.66;5063054;28;20464;-55
2023/07/16 06:40:29;;;;;;;3.72;1.30;;;;;;;17.88;89.84;97421.59;5059278;28;20040;-56
2023/07/16 06:42:56;;;;;;;4.47;1.20;;;;;;;18.00;89.99;97426.63;5060452;28;20397;-56
2023/07/16 06:45:22;;;;;;;5.95;1.50;;;;;;;17.95;88.49;97432.19;5060466;28;20602;-54
2023/07/16 06:47:49;;;;;;;4.55;1.75;;;;;;;17.91;89.31;97428.44;5061020;28;20041;-55
2023/07/16 06:50:15;;;;;;;4.88;1.40;;;;;;;17.89;89.39;97431.47;5060457;28;20129;-55
2023/07/16 06:52:42;;;;;;;4.50;1.45;;;;;;;17.90;90.56;97435.00;5060737;28;20523;-54
2023/07/16 06:55:08;;;;;;;5.57;1.40;;;;;;;17.91;89.90;97436.66;5060508;28;20040;-52
2023/07/16 06:57:35;;;;;;;4.30;1.30;;;;;;;17.98;89.79;97433.53;5059936;28;20291;-55
2023/07/16 07:00:02;;;;;;;3.72;1.60;;;;;;;17.80;90.21;97436.00;5060183;28;20055;-44
2023/07/16 07:02:29;;;;;;;7.18;1.60;;;;;;;17.66;90.43;97444.13;5061452;28;20032;-42
2023/07/16 07:04:55;;;;;;;4.75;1.50;;;;;;;17.68;89.78;97434.50;5061333;28;20044;-43
2023/07/16 07:07:22;;;;;;;9.40;1.50;;;;;;;17.79;89.69;97435.16;5061737;28;20043;-44
2023/07/16 07:09:48;;;;;;;5.18;1.55;;;;;;;17.83;86.98;97429.09;5063631;28;20059;-44
2023/07/16 07:12:15;;;;;;;4.13;1.40;;;;;;;17.79;87.12;97424.22;5063853;28;20286;-44
2023/07/16 07:14:41;;;;;;;8.27;1.45;;;;;;;17.97;88.39;97416.25;5064283;28;20044;-52
2023/07/16 07:17:08;;;;;;;5.03;1.83;;;;;;;18.24;88.47;97425.69;5064453;28;20040;-53
2023/07/16 07:19:34;;;;;;;7.35;1.60;;;;;;;18.33;87.91;97432.09;5061424;28;20044;-51
2023/07/16 07:22:01;;;;;;;6.63;1.40;;;;;;;18.31;81.78;97439.81;5058735;28;20282;-54
2023/07/16 07:24:28;;;;;;;6.22;1.55;;;;;;;18.30;81.64;97429.97;5056345;28;20050;-56
2023/07/16 07:26:54;;;;;;;3.83;1.17;;;;;;;18.54;80.59;97430.94;5060463;28;20064;-56
2023/07/16 07:29:21;;;;;;;5.97;1.33;;;;;;;18.51;83.74;97437.00;5061924;28;20071;-53
2023/07/16 07:31:47;;;;;;;5.22;1.55;;;;;;;18.45;80.85;97441.78;5064594;28;20089;-55
2023/07/16 07:34:14;;;;;;;5.50;1.17;;;;;;;18.41;79.01;97440.75;5066506;28;20044;-55
2023/07/16 07:36:41;;;;;;;4.07;1.40;;;;;;;18.59;78.42;97447.28;5061804;28;20040;-53
2023/07/16 07:39:07;;;;;;;5.00;1.48;;;;;;;18.67;78.53;97440.28;5064663;28;20071;-54
2023/07/16 07:41:34;;;;;;;5.65;2.33;;;;;;;18.64;78.77;97444.44;5062680;28;20044;-56
2023/07/16 07:44:01;;;;;;;4.85;1.15;;;;;;;18.59;78.41;97442.63;5064001;28;20040;-56
2023/07/16 07:46:27;;;;;;;5.43;1.10;;;;;;;18.61;78.91;97446.97;5063479;28;20028;-56
2023/07/16 07:48:54;;;;;;;4.18;1.80;;;;;;;18.85;77.84;97447.63;5064335;28;20036;-56
2023/07/16 07:51:20;;;;;;;5.47;1.30;;;;;;;18.79;78.07;97453.50;5063847;28;20094;-56
2023/07/16 07:53:47;;;;;;;4.18;1.17;;;;;;;19.00;78.82;97455.81;5063909;28;20044;-56
2023/07/16 07:56:13;;;;;;;4.97;1.23;;;;;;;19.03;77.91;97463.44;5063233;28;20037;-55
2023/07/16 07:58:40;;;;;;;4.13;1.50;;;;;;;19.06;77.92;97462.88;5063479;28;20051;-56
2023/07/16 08:01:07;;;;;;;3.88;1.45;;;;;;;19.14;77.32;97464.91;5063895;28;20052;-56
2023/07/16 08:03:34;;;;;;;6.07;1.23;;;;;;;19.04;76.28;97460.41;5062923;28;20132;-56
2023/07/16 08:06:01;;;;;;;3.95;1.25;;;;;;;19.37;75.80;97451.25;5063913;28;20051;-57
2023/07/16 08:08:28;;;;;;;4.35;1.10;;;;;;;19.79;76.00;97453.06;5062739;28;20041;-54
2023/07/16 08:10:55;;;;;;;2.78;1.20;;;;;;;19.97;70.42;97443.03;5063139;28;20046;-56
2023/07/16 08:13:21;;;;;;;5.32;1.50;;;;;;;20.03;69.92;97447.28;5062487;28;20049;-56
2023/07/16 08:15:48;;;;;;;6.00;1.38;;;;;;;20.03;69.51;97441.81;5064621;28;20041;-54
2023/07/16 08:18:15;;;;;;;4.10;1.15;;;;;;;19.98;69.00;97445.47;5062106;28;20697;-55
2023/07/16 08:20:41;;;;;;;4.78;1.40;;;;;;;19.93;68.21;97459.31;5064275;28;20072;-53
2023/07/16 08:23:08;;;;;;;4.85;1.05;;;;;;;20.34;68.58;97453.97;5063104;28;20048;-56
2023/07/16 08:25:34;;;;;;;4.40;1.25;;;;;;;20.12;66.30;97436.38;5062375;28;20063;-53
2023/07/16 08:28:04;;;;;;;8.20;1.88;;;;;;;19.97;67.40;97423.78;5063476;28;20036;-57
2023/07/16 08:30:32;;;;;;;4.47;1.25;;;;;;;19.73;66.41;97422.16;5062674;28;20098;-56
2023/07/16 08:32:58;;;;;;;5.95;1.30;;;;;;;19.28;69.78;97429.22;5063087;28;20052;-57
2023/07/16 08:35:25;;;;;;;6.25;1.35;;;;;;;19.40;70.58;97453.38;5062137;28;20054;-56
2023/07/16 08:37:51;;;;;;;3.53;1.10;;;;;;;19.16;71.61;97446.19;5063080;28;20037;-54
2023/07/16 08:40:20;;;;;;;4.15;1.27;;;;;;;19.14;72.28;97439.38;5064231;28;20119;-54
2023/07/16 08:42:49;;;;;;;6.20;1.30;;;;;;;19.29;70.27;97440.97;5061312;28;20454;-52
2023/07/16 08:45:16;;;;;;;5.82;1.17;;;;;;;19.01;71.03;97436.31;5062367;28;20091;-54
2023/07/16 08:47:43;;;;;;;3.22;1.23;;;;;;;19.01;72.16;97461.00;5062985;28;20452;-57
2023/07/16 08:50:10;;;;;;;12.50;2.45;;;;;;;19.13;72.95;97454.22;5062935;28;20162;-55
2023/07/16 08:52:37;;;;;;;3.05;1.00;;;;;;;19.35;71.47;97465.28;5063262;28;20565;-56
2023/07/16 08:55:05;;;;;;;4.97;1.30;;;;;;;19.31;70.52;97471.69;5062631;28;20082;-57
2023/07/16 08:57:32;;;;;;;4.60;1.75;;;;;;;19.75;68.86;97469.34;5059552;28;20048;-56
2023/07/16 09:00:00;;;;;;;3.72;1.10;;;;;;;19.60;67.88;97468.56;5063589;28;20063;-54
2023/07/16 09:02:27;;;;;;;3.50;1.48;;;;;;;19.58;69.71;97462.59;5062290;28;20044;-55
2023/07/16 09:04:54;;;;;;;7.15;2.13;;;;;;;19.60;69.67;97470.50;5062109;28;20044;-55
2023/07/16 09:07:21;;;;;;;3.28;1.10;;;;;;;19.50;67.89;97472.34;5062677;28;20462;-55
2023/07/16 09:09:59;;;;;;;4.07;1.20;;;;;;;19.45;67.92;97477.97;5061866;28;20123;-55
2023/07/16 09:12:27;;;;;;;5.65;1.33;;;;;;;19.67;68.44;97479.13;5061006;28;20077;-56
2023/07/16 09:14:53;;;;;;;4.07;1.60;;;;;;;19.77;68.23;97461.63;5062582;28;20647;-55
2023/07/16 09:17:24;;;;;;;5.32;1.65;;;;;;;19.75;66.82;97459.19;5060758;28;21171;-56
2023/07/16 09:19:51;;;;;;;3.83;1.42;;;;;;;19.62;66.95;97463.59;5062253;28;20487;-55
2023/07/16 09:22:19;;;;;;;6.07;1.38;;;;;;;19.80;67.00;97468.41;5060986;28;20051;-55
2023/07/16 09:24:47;;;;;;;5.75;1.50;;;;;;;19.99;67.12;97455.38;5061962;28;20048;-55
2023/07/16 09:27:13;;;;;;;4.45;1.40;;;;;;;20.03;66.46;97455.53;5062894;28;20039;-57
2023/07/16 09:29:40;;;;;;;7.18;1.50;;;;;;;20.11;63.54;97467.72;5061794;28;20044;-56
2023/07/16 09:32:07;;;;;;;5.38;1.50;;;;;;;20.39;64.46;97468.38;5064171;28;20659;-57
2023/07/16 09:34:34;;;;;;;4.13;1.20;;;;;;;20.72;64.46;97461.78;5061533;28;20112;-54
2023/07/16 09:37:02;;;;;;;4.70;1.25;;;;;;;20.88;63.46;97451.16;5060614;28;20604;-55
2023/07/16 09:39:31;;;;;;;5.30;1.45;;;;;;;21.04;62.42;97442.47;5061530;28;20106;-52
2023/07/16 09:41:57;;;;;;;3.95;1.50;;;;;;;21.33;62.09;97456.81;5061606;28;20056;-54
2023/07/16 09:44:24;;;;;;;4.60;1.27;;;;;;;21.24;60.40;97456.78;5061430;28;20059;-54
2023/07/16 09:46:51;;;;;;;3.50;1.13;;;;;;;20.86;62.80;97458.88;5061848;28;20480;-57
2023/07/16 09:49:17;;;;;;;5.25;1.92;;;;;;;20.99;62.29;97450.88;5062531;28;20044;-54
2023/07/16 09:51:45;;;;;;;3.13;1.15;;;;;;;20.99;62.19;97457.19;5061568;28;20048;-53
2023/07/16 09:54:15;;;;;;;5.60;1.77;;;;;;;21.26;62.73;97454.53;5062825;28;20696;-57
2023/07/16 09:56:51;;;;;;;4.30;1.50;;;;;;;21.35;62.18;97462.78;5060470;28;20059;-54
2023/07/16 09:59:22;;;;;;;6.65;1.30;;;;;;;21.37;61.34;97458.56;5059296;28;20090;-57
2023/07/16 10:01:51;;;;;;;6.32;1.60;;;;;;;21.28;61.98;97460.50;5061470;28;20040;-57
2023/07/16 10:04:19;;;;;;;4.50;1.13;;;;;;;20.90;61.76;97457.16;5059616;28;20102;-56
2023/07/16 10:06:52;;;;;;;5.65;1.40;;;;;;;20.78;61.06;97456.91;5061770;28;20036;-57
2023/07/16 10:09:37;;;;;;;6.22;2.38;;;;;;;20.79;62.28;97453.06;5058306;28;20044;-56
2023/07/16 10:12:10;;;;;;;3.70;1.15;;;;;;;20.89;61.00;97454.72;5061111;28;20044;-56
2023/07/16 10:14:45;;;;;;;6.65;1.42;;;;;;;20.77;61.20;97471.81;5060177;28;20127;-56
2023/07/16 10:17:22;;;;;;;5.47;1.52;;;;;;;20.94;61.70;97464.78;5061241;28;20044;-56
2023/07/16 10:20:07;;;;;;;4.05;1.30;;;;;;;21.22;61.50;97465.34;5059542;28;20046;-56
2023/07/16 10:22:46;;;;;;;7.30;1.95;;;;;;;21.43;61.02;97457.31;5059752;28;20985;-56
2023/07/16 10:25:19;;;;;;;4.88;1.60;;;;;;;21.58;59.61;97455.22;5059904;28;20609;-55
2023/07/16 10:27:47;;;;;;;5.70;1.30;;;;;;;21.68;60.64;97452.13;5060673;28;20082;-58
2023/07/16 10:30:15;;;;;;;2.80;1.00;;;;;;;21.68;58.13;97459.59;5060241;28;20428;-56
2023/07/16 10:32:42;;;;;;;4.25;1.55;;;;;;;21.67;58.22;97444.22;5060810;28;20040;-54
2023/07/16 10:35:09;;;;;;;4.30;1.42;;;;;;;21.65;57.73;97447.28;5060865;28;20609;-55
2023/07/16 10:37:37;;;;;;;3.22;1.42;;;;;;;21.83;57.45;97444.56;5059897;28;20052;-56
2023/07/16 10:40:04;;;;;;;4.15;1.27;;;;;;;22.07;56.76;97449.56;5062408;28;20119;-55
2023/07/16 10:42:32;;;;;;;3.83;1.35;;;;;;;21.69;58.81;97442.75;5059904;28;20044;-55
2023/07/16 10:45:05;;;;;;;4.70;1.58;;;;;;;22.46;60.54;97443.31;5060518;28;20048;-57
2023/07/16 10:47:34;;;;;;;4.70;1.42;;;;;;;22.91;55.37;97442.03;5061420;28;20094;-56
2023/07/16 10:50:07;;;;;;;4.90;1.60;;;;;;;22.75;56.49;97444.56;5060515;28;20040;-55
2023/07/16 10:52:35;;;;;;;5.97;2.15;;;;;;;22.74;57.79;97432.69;5059966;28;20680;-56
2023/07/16 10:55:02;;;;;;;5.20;1.58;;;;;;;22.63;55.63;97438.91;5059418;28;20054;-55
2023/07/16 10:57:29;;;;;;;6.28;1.92;;;;;;;22.67;56.66;97442.63;5060729;28;20040;-56
2023/07/16 10:59:57;;;;;;;3.67;1.27;;;;;;;22.62;56.01;97440.84;5060836;28;20036;-55
2023/07/16 11:02:25;;;;;;;5.10;1.60;;;;;;;22.65;56.30;97440.19;5060863;28;20048;-55
2023/07/16 11:04:57;;;;;;;3.00;1.40;;;;;;;22.44;55.37;97427.09;5060472;28;20049;-55
2023/07/16 11:07:23;;;;;;;5.90;1.80;;;;;;;22.31;55.44;97428.09;5059136;28;20036;-57
2023/07/16 11:09:53;;;;;;;5.68;1.65;;;;;;;22.63;58.25;97428.69;5060753;28;20538;-56
2023/07/16 11:12:21;;;;;;;6.93;1.52;;;;;;;22.69;55.44;97429.28;5058676;28;20037;-57
2023/07/16 11:14:56;;;;;;;3.70;1.30;;;;;;;22.81;52.88;97423.88;5060186;28;20051;-57
2023/07/16 11:17:24;;;;;;;2.45;1.35;;;;;;;23.20;52.85;97421.09;5059687;28;20670;-56
2023/07/16 11:19:53;;;;;;;4.90;1.30;;;;;;;23.32;51.41;97427.81;5060742;28;20036;-57
2023/07/16 11:22:23;;;;;;;3.08;1.42;;;;;;;23.44;51.78;97419.66;5059910;28;20640;-57
2023/07/16 11:24:51;;;;;;;6.63;2.00;;;;;;;23.28;54.00;97426.91;5059822;28;20054;-55
2023/07/16 11:27:18;;;;;;;4.65;1.30;;;;;;;22.91;52.91;97422.72;5060053;28;20471;-55
2023/07/16 11:29:50;;;;;;;3.90;1.58;;;;;;;22.91;54.67;97419.13;5059016;28;21005;-54
2023/07/16 11:32:47;;;;;;;3.53;1.42;;;;;;;22.98;53.29;97424.94;5059647;28;20040;-54